createdAt,value
2019-02-24T00:00:16.552Z,42.40
2019-02-24T00:02:19.487Z,42.30
2019-02-24T00:04:22.474Z,42.30
2019-02-24T00:06:25.535Z,42.40
2019-02-24T00:08:29.228Z,42.60
2019-02-24T00:10:33.306Z,42.60
2019-02-24T00:12:36.252Z,42.50
2019-02-24T00:14:39.207Z,42.40
2019-02-24T00:16:43.006Z,42.30
2019-02-24T00:18:47.050Z,42.20
2019-02-24T00:20:49.988Z,42.20
2019-02-24T00:22:53.799Z,42.30
2019-02-24T00:24:57.852Z,42.30
2019-02-24T00:27:00.852Z,42.20
2019-02-24T00:29:03.854Z,42.20
2019-02-24T00:31:07.633Z,42.30
2019-02-24T00:33:10.572Z,42.20
2019-02-24T00:35:13.527Z,42.20
2019-02-24T00:37:16.456Z,42.30
2019-02-24T00:39:19.415Z,42.30
2019-02-24T00:41:23.120Z,42.50
2019-02-24T00:43:26.048Z,42.40
2019-02-24T00:45:29.597Z,42.50
2019-02-24T00:47:33.321Z,42.50
2019-02-24T00:49:36.224Z,42.50
2019-02-24T00:51:39.136Z,42.50
2019-02-24T00:53:42.103Z,42.60
2019-02-24T00:55:46.649Z,42.60
2019-02-24T00:57:50.356Z,42.70
2019-02-24T00:59:54.869Z,42.80
2019-02-24T01:01:59.863Z,42.80
2019-02-24T01:04:02.388Z,42.80
2019-02-24T01:06:05.322Z,42.80
2019-02-24T01:08:08.316Z,42.90
2019-02-24T01:10:11.280Z,43.00
2019-02-24T01:12:14.301Z,43.10
2019-02-24T01:14:18.008Z,43.20
2019-02-24T01:16:21.719Z,43.20
2019-02-24T01:18:24.708Z,43.10
2019-02-24T01:20:27.624Z,43.10
2019-02-24T01:22:30.576Z,43.10
2019-02-24T01:24:33.493Z,43.20
2019-02-24T01:26:36.520Z,43.30
2019-02-24T01:28:40.322Z,43.40
2019-02-24T01:30:44.121Z,43.30
2019-02-24T01:32:47.835Z,43.50
2019-02-24T01:34:50.764Z,43.40
2019-02-24T01:36:53.795Z,43.40
2019-02-24T01:38:57.091Z,43.40
2019-02-24T01:41:00.847Z,44.10
2019-02-24T01:43:03.777Z,43.50
2019-02-24T01:45:06.859Z,43.70
2019-02-24T01:47:09.779Z,43.80
2019-02-24T01:49:12.810Z,43.80
2019-02-24T01:51:16.631Z,43.90
2019-02-24T01:53:19.555Z,43.90
2019-02-24T01:55:22.495Z,43.90
2019-02-24T01:57:25.460Z,43.90
2019-02-24T01:59:29.143Z,44.10
2019-02-24T02:01:32.859Z,44.70
2019-02-24T02:03:36.968Z,44.20
2019-02-24T02:05:40.656Z,44.20
2019-02-24T02:07:43.789Z,44.20
2019-02-24T02:09:47.431Z,44.20
2019-02-24T02:11:50.353Z,44.30
2019-02-24T02:13:53.438Z,44.40
2019-02-24T02:15:56.360Z,44.40
2019-02-24T02:17:59.385Z,44.40
2019-02-24T02:20:04.032Z,44.60
2019-02-24T02:22:07.016Z,44.50
2019-02-24T02:24:09.935Z,44.60
2019-02-24T02:26:12.874Z,44.70
2019-02-24T02:28:15.790Z,44.70
2019-02-24T02:30:18.843Z,44.70
2019-02-24T02:32:21.754Z,44.60
2019-02-24T02:34:25.316Z,44.20
2019-02-24T02:36:28.248Z,44.00
2019-02-24T02:38:31.180Z,43.90
2019-02-24T02:40:34.095Z,43.90
2019-02-24T02:42:37.376Z,43.80
2019-02-24T02:44:40.280Z,43.80
2019-02-24T02:46:43.300Z,43.90
2019-02-24T02:48:47.132Z,44.00
2019-02-24T02:50:50.034Z,43.90
2019-02-24T02:52:53.067Z,44.00
2019-02-24T02:54:56.870Z,43.80
2019-02-24T02:57:00.546Z,43.70
2019-02-24T02:59:03.552Z,43.60
2019-02-24T03:01:07.355Z,43.20
2019-02-24T03:03:10.351Z,43.10
2019-02-24T03:05:13.260Z,43.10
2019-02-24T03:07:19.970Z,42.80
2019-02-24T03:09:22.975Z,42.60
2019-02-24T03:11:26.656Z,42.60
2019-02-24T03:13:31.099Z,42.60
2019-02-24T03:15:34.790Z,42.60
2019-02-24T03:17:38.458Z,42.60
2019-02-24T03:19:41.413Z,42.60
2019-02-24T03:21:44.311Z,42.50
2019-02-24T03:23:47.213Z,42.50
2019-02-24T03:25:50.178Z,42.40
2019-02-24T03:27:53.080Z,42.20
2019-02-24T03:29:55.998Z,42.10
2019-02-24T03:31:59.404Z,42.00
2019-02-24T03:34:02.337Z,41.80
2019-02-24T03:36:05.250Z,41.80
2019-02-24T03:38:08.198Z,41.70
2019-02-24T03:40:11.903Z,41.90
2019-02-24T03:42:14.936Z,41.60
2019-02-24T03:44:17.869Z,41.60
2019-02-24T03:46:21.567Z,42.20
2019-02-24T03:48:24.481Z,41.40
2019-02-24T03:50:27.417Z,41.20
2019-02-24T03:52:31.115Z,41.40
2019-02-24T03:54:34.095Z,41.20
2019-02-24T03:56:37.044Z,41.10
2019-02-24T03:58:39.965Z,41.10
2019-02-24T04:00:42.877Z,41.20
2019-02-24T04:02:46.677Z,41.40
2019-02-24T04:04:50.338Z,41.40
2019-02-24T04:06:53.360Z,41.30
2019-02-24T04:08:57.162Z,41.30
2019-02-24T04:11:00.831Z,41.30
2019-02-24T04:13:04.136Z,41.20
2019-02-24T04:15:08.550Z,41.20
2019-02-24T04:17:11.478Z,41.10
2019-02-24T04:19:14.640Z,41.10
2019-02-24T04:21:18.308Z,41.20
2019-02-24T04:23:21.422Z,41.10
2019-02-24T04:25:25.225Z,41.30
2019-02-24T04:27:28.891Z,41.40
2019-02-24T04:29:31.813Z,41.20
2019-02-24T04:31:34.994Z,41.30
2019-02-24T04:33:39.503Z,41.30
2019-02-24T04:35:43.183Z,41.80
2019-02-24T04:37:46.212Z,41.20
2019-02-24T04:39:49.126Z,41.20
2019-02-24T04:41:52.078Z,41.20
2019-02-24T04:43:55.043Z,41.20
2019-02-24T04:45:58.717Z,41.30
2019-02-24T04:48:01.725Z,41.30
2019-02-24T04:50:05.445Z,41.40
2019-02-24T04:52:08.360Z,41.40
2019-02-24T04:54:11.278Z,41.40
2019-02-24T04:56:15.178Z,41.30
2019-02-24T04:58:18.090Z,41.30
2019-02-24T05:00:21.034Z,41.20
2019-02-24T05:02:23.959Z,41.30
2019-02-24T05:04:27.710Z,41.40
2019-02-24T05:06:30.655Z,41.30
2019-02-24T05:08:33.578Z,41.30
2019-02-24T05:10:36.587Z,41.20
2019-02-24T05:12:40.315Z,41.20
2019-02-24T05:14:43.231Z,41.10
2019-02-24T05:16:46.254Z,41.00
2019-02-24T05:18:50.055Z,40.70
2019-02-24T05:20:53.732Z,41.00
2019-02-24T05:22:56.738Z,41.00
2019-02-24T05:25:00.540Z,41.00
2019-02-24T05:27:04.215Z,41.00
2019-02-24T05:29:07.165Z,40.90
2019-02-24T05:31:10.839Z,40.80
2019-02-24T05:33:13.762Z,40.70
2019-02-24T05:35:16.707Z,40.70
2019-02-24T05:37:19.620Z,40.60
2019-02-24T05:39:22.524Z,40.50
2019-02-24T05:41:26.266Z,40.90
2019-02-24T05:43:30.154Z,40.30
2019-02-24T05:45:33.831Z,40.30
2019-02-24T05:47:36.770Z,40.20
2019-02-24T05:49:39.799Z,40.00
2019-02-24T05:51:42.667Z,39.90
2019-02-24T05:53:45.599Z,39.90
2019-02-24T05:55:48.510Z,39.90
2019-02-24T05:57:51.426Z,39.90
2019-02-24T05:59:55.627Z,39.80
2019-02-24T06:01:58.083Z,39.70
2019-02-24T06:04:01.001Z,39.70
2019-02-24T06:06:04.815Z,39.40
2019-02-24T06:08:08.484Z,39.40
2019-02-24T06:10:11.963Z,39.30
2019-02-24T06:12:14.885Z,39.30
2019-02-24T06:14:18.562Z,39.20
2019-02-24T06:16:21.773Z,39.10
2019-02-24T06:18:25.447Z,39.10
2019-02-24T06:20:29.862Z,39.10
2019-02-24T06:22:32.820Z,39.00
2019-02-24T06:24:36.680Z,38.90
2019-02-24T06:26:40.352Z,38.90
2019-02-24T06:28:43.290Z,38.80
2019-02-24T06:30:46.198Z,38.80
2019-02-24T06:32:49.222Z,38.90
2019-02-24T06:34:53.039Z,38.90
2019-02-24T06:36:55.955Z,38.80
2019-02-24T06:38:58.867Z,38.80
2019-02-24T06:41:01.806Z,38.80
2019-02-24T06:43:04.715Z,38.70
2019-02-24T06:45:07.736Z,38.70
2019-02-24T06:47:11.438Z,38.60
2019-02-24T06:49:15.115Z,38.50
2019-02-24T06:51:18.043Z,38.50
2019-02-24T06:53:21.100Z,38.60
2019-02-24T06:55:24.770Z,38.60
2019-02-24T06:57:27.782Z,38.50
2019-02-24T06:59:31.688Z,38.50
2019-02-24T07:01:35.364Z,38.60
2019-02-24T07:03:38.292Z,38.40
2019-02-24T07:05:41.282Z,38.50
2019-02-24T07:07:44.197Z,38.50
2019-02-24T07:09:47.217Z,38.50
2019-02-24T07:11:50.936Z,38.40
2019-02-24T07:13:53.847Z,38.40
2019-02-24T07:15:56.771Z,38.30
2019-02-24T07:18:00.466Z,38.20
2019-02-24T07:20:04.148Z,38.30
2019-02-24T07:22:07.079Z,38.30
2019-02-24T07:24:10.031Z,38.20
2019-02-24T07:26:13.027Z,38.20
2019-02-24T07:28:16.714Z,38.90
2019-02-24T07:30:23.453Z,38.20
2019-02-24T07:32:23.446Z,38.10
2019-02-24T07:34:26.370Z,38.10
2019-02-24T07:36:29.490Z,38.00
2019-02-24T07:38:33.282Z,37.90
2019-02-24T07:40:36.963Z,37.90
2019-02-24T07:42:39.894Z,37.90
2019-02-24T07:44:42.812Z,37.80
2019-02-24T07:46:45.781Z,37.70
2019-02-24T07:48:48.834Z,37.60
2019-02-24T07:50:51.794Z,37.60
2019-02-24T07:52:54.719Z,37.50
2019-02-24T07:54:58.359Z,37.40
2019-02-24T07:57:02.146Z,37.20
2019-02-24T07:59:05.058Z,37.10
2019-02-24T08:01:08.876Z,36.90
2019-02-24T08:03:11.854Z,36.90
2019-02-24T08:05:14.735Z,36.80
2019-02-24T08:07:18.447Z,36.60
2019-02-24T08:09:21.360Z,36.50
2019-02-24T08:11:24.263Z,36.60
2019-02-24T08:13:27.398Z,36.60
2019-02-24T08:15:30.317Z,36.50
2019-02-24T08:17:33.221Z,36.40
2019-02-24T08:19:36.338Z,36.40
2019-02-24T08:21:39.255Z,36.20
2019-02-24T08:23:42.288Z,36.10
2019-02-24T08:25:46.106Z,36.60
2019-02-24T08:27:49.027Z,35.90
2019-02-24T08:29:51.957Z,35.90
2019-02-24T08:31:55.655Z,35.80
2019-02-24T08:33:58.643Z,35.80
2019-02-24T08:36:02.318Z,35.60
2019-02-24T08:38:05.443Z,35.50
2019-02-24T08:40:08.371Z,35.30
2019-02-24T08:42:11.289Z,35.20
2019-02-24T08:44:15.410Z,35.10
2019-02-24T08:46:18.482Z,35.00
2019-02-24T08:48:22.212Z,35.00
2019-02-24T08:50:25.142Z,35.00
2019-02-24T08:52:28.147Z,35.50
2019-02-24T08:54:31.824Z,34.10
2019-02-24T08:56:35.098Z,34.50
2019-02-24T08:58:38.004Z,34.50
2019-02-24T09:00:50.556Z,34.50
2019-02-24T09:02:45.173Z,34.50
2019-02-24T09:04:48.069Z,34.40
2019-02-24T09:06:51.076Z,34.30
2019-02-24T09:08:54.891Z,34.30
2019-02-24T09:10:58.578Z,34.30
2019-02-24T09:13:02.269Z,34.10
2019-02-24T09:15:07.942Z,34.10
2019-02-24T09:17:10.873Z,33.90
2019-02-24T09:19:13.889Z,33.70
2019-02-24T09:21:18.019Z,33.40
2019-02-24T09:23:20.924Z,33.40
2019-02-24T09:25:23.830Z,33.20
2019-02-24T09:27:26.859Z,33.20
2019-02-24T09:29:29.771Z,33.30
2019-02-24T09:31:33.310Z,33.10
2019-02-24T09:33:36.513Z,33.10
2019-02-24T09:35:40.180Z,32.90
2019-02-24T09:37:43.095Z,32.80
2019-02-24T09:39:46.903Z,32.90
2019-02-24T09:41:50.570Z,33.00
2019-02-24T09:43:53.567Z,32.90
2019-02-24T09:45:57.115Z,32.80
2019-02-24T09:48:00.083Z,32.70
2019-02-24T09:50:03.004Z,32.80
2019-02-24T09:52:06.533Z,32.80
2019-02-24T09:54:10.204Z,32.70
2019-02-24T09:56:13.136Z,32.70
2019-02-24T09:58:16.107Z,32.60
2019-02-24T10:00:19.019Z,32.70
2019-02-24T10:02:21.958Z,32.40
2019-02-24T10:04:26.418Z,32.50
2019-02-24T10:06:30.358Z,32.40
2019-02-24T10:08:33.278Z,32.50
2019-02-24T10:10:36.228Z,32.30
2019-02-24T10:12:39.178Z,32.40
2019-02-24T10:14:42.217Z,32.40
2019-02-24T10:16:46.035Z,32.60
2019-02-24T10:18:48.946Z,32.40
2019-02-24T10:20:51.866Z,32.50
2019-02-24T10:22:54.986Z,32.60
2019-02-24T10:24:57.904Z,32.50
2019-02-24T10:27:00.810Z,32.20
2019-02-24T10:29:03.749Z,32.00
2019-02-24T10:31:06.667Z,31.80
2019-02-24T10:33:09.579Z,31.70
2019-02-24T10:35:12.515Z,31.70
2019-02-24T10:37:16.263Z,31.60
2019-02-24T10:39:19.199Z,31.50
2019-02-24T10:41:22.651Z,31.40
2019-02-24T10:43:25.572Z,31.30
2019-02-24T10:45:28.496Z,31.00
2019-02-24T10:47:32.214Z,30.70
2019-02-24T10:49:35.145Z,30.70
2019-02-24T10:51:38.066Z,30.60
2019-02-24T10:53:41.163Z,30.50
2019-02-24T10:55:44.072Z,30.50
2019-02-24T10:57:47.009Z,30.60
2019-02-24T10:59:50.126Z,30.30
2019-02-24T11:01:53.042Z,30.40
2019-02-24T11:03:56.065Z,30.50
2019-02-24T11:05:59.772Z,30.00
2019-02-24T11:08:03.565Z,29.90
2019-02-24T11:10:07.256Z,29.90
2019-02-24T11:12:10.950Z,30.00
2019-02-24T11:14:14.740Z,29.60
2019-02-24T11:16:17.813Z,29.60
2019-02-24T11:18:21.152Z,29.50
2019-02-24T11:20:24.086Z,29.30
2019-02-24T11:22:27.007Z,29.30
2019-02-24T11:24:30.722Z,29.10
2019-02-24T11:26:33.699Z,29.10
2019-02-24T11:28:37.374Z,29.10
2019-02-24T11:30:41.094Z,28.90
2019-02-24T11:32:44.964Z,28.90
2019-02-24T11:34:47.978Z,28.80
2019-02-24T11:36:51.779Z,29.00
2019-02-24T11:38:55.471Z,29.20
2019-02-24T11:40:59.177Z,29.30
2019-02-24T11:43:03.029Z,29.50
2019-02-24T11:45:05.980Z,29.40
2019-02-24T11:47:08.890Z,29.30
2019-02-24T11:49:11.946Z,29.30
2019-02-24T11:51:14.849Z,29.60
2019-02-24T11:53:17.774Z,29.60
2019-02-24T11:55:21.518Z,29.50
2019-02-24T11:57:24.474Z,29.40
2019-02-24T11:59:28.153Z,29.10
2019-02-24T12:01:32.614Z,28.90
2019-02-24T12:03:35.527Z,28.90
2019-02-24T12:05:38.434Z,28.10
2019-02-24T12:07:42.880Z,28.50
2019-02-24T12:09:45.811Z,28.00
2019-02-24T12:11:48.722Z,28.10
2019-02-24T12:13:52.538Z,28.60
2019-02-24T12:15:56.227Z,28.20
2019-02-24T12:17:59.255Z,28.20
2019-02-24T12:20:02.438Z,28.20
2019-02-24T12:22:05.392Z,28.60
2019-02-24T12:24:09.093Z,28.40
2019-02-24T12:26:12.790Z,28.40
2019-02-24T12:28:16.474Z,27.90
2019-02-24T12:30:19.392Z,27.90
2019-02-24T12:32:22.335Z,27.80
2019-02-24T12:34:25.261Z,28.00
2019-02-24T12:36:28.238Z,28.00
2019-02-24T12:38:31.147Z,27.70
2019-02-24T12:40:34.066Z,27.40
2019-02-24T12:42:37.001Z,27.10
2019-02-24T12:44:40.052Z,27.00
2019-02-24T12:46:43.730Z,26.70
2019-02-24T12:48:46.655Z,26.60
2019-02-24T12:50:49.603Z,26.10
2019-02-24T12:52:53.278Z,26.50
2019-02-24T12:54:56.219Z,26.30
2019-02-24T12:56:59.381Z,26.10
2019-02-24T12:59:03.159Z,26.70
2019-02-24T13:01:06.087Z,26.00
2019-02-24T13:03:09.022Z,25.80
2019-02-24T13:05:12.029Z,26.10
2019-02-24T13:07:15.703Z,25.80
2019-02-24T13:09:19.662Z,25.70
2019-02-24T13:11:21.696Z,25.50
2019-02-24T13:13:25.381Z,25.90
2019-02-24T13:15:29.612Z,25.90
2019-02-24T13:17:33.310Z,25.40
2019-02-24T13:19:37.109Z,25.40
2019-02-24T13:21:41.015Z,25.50
2019-02-24T13:23:44.703Z,25.00
2019-02-24T13:25:47.619Z,24.90
2019-02-24T13:27:50.623Z,24.80
2019-02-24T13:29:53.546Z,24.50
2019-02-24T13:31:57.261Z,24.30
2019-02-24T13:34:01.069Z,24.10
2019-02-24T13:36:04.795Z,23.90
2019-02-24T13:38:07.704Z,23.90
2019-02-24T13:40:11.630Z,23.80
2019-02-24T13:42:15.318Z,23.70
2019-02-24T13:44:18.333Z,23.60
2019-02-24T13:46:22.238Z,23.00
2019-02-24T13:48:27.016Z,23.40
2019-02-24T13:50:30.051Z,23.40
2019-02-24T13:52:33.952Z,23.90
2019-02-24T13:54:37.624Z,24.90
2019-02-24T13:56:40.636Z,24.40
2019-02-24T13:58:44.373Z,25.50
2019-02-24T14:00:47.301Z,25.40
2019-02-24T14:02:50.230Z,25.60
2019-02-24T14:04:53.299Z,25.80
2019-02-24T14:06:56.228Z,25.80
2019-02-24T14:08:59.149Z,25.90
2019-02-24T14:11:02.968Z,25.90
2019-02-24T14:13:05.898Z,25.80
2019-02-24T14:15:12.438Z,25.50
2019-02-24T14:17:15.486Z,25.20
2019-02-24T14:19:19.287Z,25.00
2019-02-24T14:21:22.279Z,24.90
2019-02-24T14:23:26.337Z,25.00
2019-02-24T14:25:29.266Z,25.00
2019-02-24T14:27:32.942Z,24.20
2019-02-24T14:29:36.692Z,23.90
2019-02-24T14:31:39.624Z,23.80
2019-02-24T14:33:42.668Z,23.50
2019-02-24T14:35:45.711Z,23.50
2019-02-24T14:37:49.407Z,23.50
2019-02-24T14:39:52.314Z,23.40
2019-02-24T14:41:55.377Z,23.00
2019-02-24T14:43:59.789Z,22.90
2019-02-24T14:46:03.473Z,23.20
2019-02-24T14:48:07.415Z,22.60
2019-02-24T14:50:10.327Z,22.60
2019-02-24T14:52:13.269Z,22.40
2019-02-24T14:54:16.983Z,22.00
2019-02-24T14:56:19.895Z,22.00
2019-02-24T14:58:22.818Z,21.80
2019-02-24T15:00:25.885Z,22.20
2019-02-24T15:02:28.818Z,22.00
2019-02-24T15:04:31.734Z,22.00
2019-02-24T15:06:34.692Z,22.00
2019-02-24T15:08:37.802Z,21.90
2019-02-24T15:10:40.825Z,22.00
2019-02-24T15:12:44.541Z,21.50
2019-02-24T15:14:47.484Z,21.50
2019-02-24T15:16:50.411Z,21.80
2019-02-24T15:18:53.798Z,21.50
2019-02-24T15:20:56.715Z,21.20
2019-02-24T15:22:59.749Z,21.00
2019-02-24T15:25:03.451Z,20.90
2019-02-24T15:27:07.129Z,21.10
2019-02-24T15:29:10.351Z,21.00
2019-02-24T15:31:14.547Z,21.10
2019-02-24T15:33:18.222Z,21.30
2019-02-24T15:35:21.231Z,21.70
2019-02-24T15:37:25.150Z,20.80
2019-02-24T15:39:28.070Z,20.80
2019-02-24T15:41:31.085Z,20.70
2019-02-24T15:43:34.907Z,20.60
2019-02-24T15:45:38.603Z,20.70
2019-02-24T15:47:42.871Z,20.70
2019-02-24T15:49:46.223Z,20.60
2019-02-24T15:51:49.147Z,20.50
2019-02-24T15:53:52.071Z,20.40
2019-02-24T15:55:55.814Z,20.70
2019-02-24T15:57:58.758Z,20.70
2019-02-24T16:00:02.559Z,20.70
2019-02-24T16:02:06.275Z,20.60
2019-02-24T16:04:09.194Z,20.60
2019-02-24T16:06:12.132Z,20.60
2019-02-24T16:08:15.095Z,20.70
2019-02-24T16:10:19.587Z,20.50
2019-02-24T16:12:22.607Z,20.40
2019-02-24T16:14:26.426Z,20.30
2019-02-24T16:16:29.342Z,20.30
2019-02-24T16:18:33.238Z,20.40
2019-02-24T16:20:36.278Z,20.70
2019-02-24T16:22:39.261Z,20.60
2019-02-24T16:24:42.953Z,20.40
2019-02-24T16:26:46.668Z,20.30
2019-02-24T16:28:50.363Z,20.10
2019-02-24T16:30:54.060Z,20.20
2019-02-24T16:32:58.009Z,20.10
2019-02-24T16:35:00.931Z,20.10
2019-02-24T16:37:03.842Z,20.10
2019-02-24T16:39:06.918Z,20.10
2019-02-24T16:41:10.591Z,20.20
2019-02-24T16:43:13.523Z,20.10
2019-02-24T16:45:16.919Z,20.20
2019-02-24T16:47:19.834Z,20.20
2019-02-24T16:49:22.755Z,20.30
2019-02-24T16:51:26.471Z,20.50
2019-02-24T16:53:29.387Z,20.50
2019-02-24T16:55:32.294Z,20.60
2019-02-24T16:57:35.505Z,20.60
2019-02-24T16:59:39.182Z,20.80
2019-02-24T17:01:42.098Z,20.70
2019-02-24T17:03:46.007Z,20.90
2019-02-24T17:05:48.926Z,20.90
2019-02-24T17:07:51.954Z,20.90
2019-02-24T17:09:55.664Z,21.00
2019-02-24T17:11:59.466Z,21.10
2019-02-24T17:14:03.266Z,21.00
2019-02-24T17:16:06.975Z,21.10
2019-02-24T17:18:09.919Z,21.00
2019-02-24T17:20:14.455Z,21.10
2019-02-24T17:22:18.159Z,21.60
2019-02-24T17:24:21.860Z,21.20
2019-02-24T17:26:25.575Z,21.30
2019-02-24T17:28:28.526Z,21.20
2019-02-24T17:30:32.214Z,21.30
2019-02-24T17:32:35.151Z,21.30
2019-02-24T17:34:38.209Z,21.40
2019-02-24T17:36:41.936Z,21.50
2019-02-24T17:38:44.846Z,21.50
2019-02-24T17:40:47.788Z,21.50
2019-02-24T17:42:50.691Z,21.50
2019-02-24T17:44:55.280Z,21.50
2019-02-24T17:46:59.180Z,21.60
2019-02-24T17:49:02.851Z,21.70
2019-02-24T17:51:06.555Z,21.80
2019-02-24T17:53:09.694Z,21.60
2019-02-24T17:55:12.616Z,21.70
2019-02-24T17:57:15.647Z,21.70
2019-02-24T17:59:18.716Z,21.90
2019-02-24T18:01:22.399Z,22.50
2019-02-24T18:03:25.333Z,22.00
2019-02-24T18:05:28.791Z,22.00
2019-02-24T18:07:32.492Z,22.10
2019-02-24T18:09:36.170Z,22.00
2019-02-24T18:11:39.110Z,21.90
2019-02-24T18:13:42.031Z,21.90
2019-02-24T18:15:44.955Z,21.80
2019-02-24T18:17:47.902Z,21.90
2019-02-24T18:19:50.815Z,21.70
2019-02-24T18:21:53.729Z,21.80
2019-02-24T18:23:56.699Z,21.80
2019-02-24T18:25:59.631Z,21.80
2019-02-24T18:28:02.556Z,21.80
2019-02-24T18:30:06.551Z,21.80
2019-02-24T18:32:09.471Z,21.80
2019-02-24T18:34:12.452Z,21.80
2019-02-24T18:36:15.417Z,21.80
2019-02-24T18:38:18.341Z,21.80
2019-02-24T18:40:21.347Z,21.90
2019-02-24T18:42:25.166Z,21.70
2019-02-24T18:44:28.086Z,21.70
2019-02-24T18:46:31.033Z,21.80
2019-02-24T18:48:33.996Z,21.90
2019-02-24T18:50:37.699Z,22.20
2019-02-24T18:52:41.498Z,22.70
2019-02-24T18:54:45.337Z,22.20
2019-02-24T18:56:48.250Z,22.10
2019-02-24T18:58:51.299Z,22.10
2019-02-24T19:00:54.352Z,22.00
2019-02-24T19:02:58.015Z,22.00
2019-02-24T19:05:00.926Z,22.00
2019-02-24T19:07:04.734Z,22.10
2019-02-24T19:09:08.439Z,22.10
2019-02-24T19:11:12.115Z,22.20
2019-02-24T19:13:15.954Z,22.20
2019-02-24T19:15:22.543Z,22.20
2019-02-24T19:17:25.458Z,22.30
2019-02-24T19:19:28.417Z,22.30
2019-02-24T19:21:31.355Z,22.40
2019-02-24T19:23:35.043Z,22.40
2019-02-24T19:25:37.992Z,22.30
2019-02-24T19:27:40.914Z,22.50
2019-02-24T19:29:44.818Z,22.70
2019-02-24T19:31:48.560Z,22.80
2019-02-24T19:33:52.119Z,22.70
2019-02-24T19:35:55.103Z,22.60
2019-02-24T19:37:58.820Z,22.70
2019-02-24T19:40:01.741Z,22.70
2019-02-24T19:42:06.326Z,22.70
2019-02-24T19:44:09.310Z,22.70
2019-02-24T19:46:12.261Z,22.80
2019-02-24T19:48:15.251Z,22.80
2019-02-24T19:50:19.052Z,23.00
2019-02-24T19:52:22.735Z,23.00
2019-02-24T19:54:25.644Z,23.00
2019-02-24T19:56:28.923Z,22.90
2019-02-24T19:58:33.107Z,23.30
2019-02-24T20:00:36.067Z,22.90
2019-02-24T20:02:39.211Z,23.00
2019-02-24T20:04:42.895Z,23.20
2019-02-24T20:06:46.579Z,23.30
2019-02-24T20:08:49.527Z,23.30
2019-02-24T20:10:52.446Z,23.40
2019-02-24T20:12:55.554Z,23.50
2019-02-24T20:15:00.071Z,23.50
2019-02-24T20:17:03.771Z,23.60
2019-02-24T20:19:07.796Z,23.50
2019-02-24T20:21:10.766Z,23.40
2019-02-24T20:23:14.461Z,23.70
2019-02-24T20:25:21.847Z,23.80
2019-02-24T20:27:25.566Z,24.50
2019-02-24T20:29:28.534Z,24.50
2019-02-24T20:31:31.479Z,24.60
2019-02-24T20:33:34.638Z,24.60
2019-02-24T20:35:37.538Z,24.70
2019-02-24T20:37:40.565Z,24.90
2019-02-24T20:39:44.472Z,25.20
2019-02-24T20:41:47.472Z,25.20
2019-02-24T20:43:50.392Z,25.30
2019-02-24T20:45:53.356Z,25.40
2019-02-24T20:47:56.264Z,25.50
2019-02-24T20:49:59.283Z,25.50
2019-02-24T20:52:03.004Z,25.90
2019-02-24T20:54:05.942Z,25.80
2019-02-24T20:56:09.156Z,26.10
2019-02-24T20:58:12.259Z,26.20
2019-02-24T21:00:17.674Z,26.40
2019-02-24T21:02:21.379Z,27.40
2019-02-24T21:04:25.087Z,27.30
2019-02-24T21:06:28.014Z,27.20
2019-02-24T21:08:30.947Z,27.30
2019-02-24T21:10:33.895Z,27.30
2019-02-24T21:12:36.825Z,27.30
2019-02-24T21:14:39.739Z,27.30
2019-02-24T21:16:42.956Z,27.50
2019-02-24T21:18:45.870Z,27.50
2019-02-24T21:20:48.794Z,27.60
2019-02-24T21:22:51.739Z,27.60
2019-02-24T21:24:54.668Z,27.70
2019-02-24T21:26:57.688Z,27.80
2019-02-24T21:29:01.423Z,28.00
2019-02-24T21:31:04.342Z,28.00
2019-02-24T21:33:07.357Z,28.00
2019-02-24T21:35:11.074Z,28.40
2019-02-24T21:37:13.986Z,28.40
2019-02-24T21:39:17.023Z,28.60
2019-02-24T21:41:20.744Z,28.90
2019-02-24T21:43:23.659Z,28.90
2019-02-24T21:45:26.572Z,29.00
2019-02-24T21:47:29.679Z,28.90
2019-02-24T21:49:32.603Z,29.00
2019-02-24T21:51:35.557Z,29.10
2019-02-24T21:53:39.350Z,29.20
2019-02-24T21:55:42.279Z,29.20
2019-02-24T21:57:45.282Z,29.30
2019-02-24T21:59:48.222Z,29.30
2019-02-24T22:01:51.147Z,29.40
2019-02-24T22:03:54.071Z,29.50
2019-02-24T22:05:57.042Z,29.60
2019-02-24T22:07:59.963Z,29.60
2019-02-24T22:10:02.899Z,29.70
2019-02-24T22:12:05.857Z,29.80
2019-02-24T22:14:09.558Z,30.20
2019-02-24T22:16:13.242Z,30.50
2019-02-24T22:18:16.375Z,30.00
2019-02-24T22:20:20.064Z,30.00
2019-02-24T22:22:23.739Z,30.20
2019-02-24T22:24:26.859Z,30.10
2019-02-24T22:26:29.798Z,30.20
2019-02-24T22:28:33.446Z,30.30
2019-02-24T22:30:36.843Z,30.40
2019-02-24T22:32:39.767Z,30.40
2019-02-24T22:34:42.789Z,30.40
2019-02-24T22:36:46.690Z,30.60
2019-02-24T22:38:50.358Z,30.70
2019-02-24T22:40:54.532Z,30.50
2019-02-24T22:42:56.371Z,30.60
2019-02-24T22:44:59.293Z,30.80
2019-02-24T22:47:02.322Z,30.90
2019-02-24T22:49:05.834Z,31.00
2019-02-24T22:51:08.751Z,31.20
2019-02-24T22:53:11.981Z,31.30
2019-02-24T22:55:16.719Z,31.30
2019-02-24T22:57:20.394Z,31.40
2019-02-24T22:59:23.310Z,31.40
2019-02-24T23:01:26.254Z,31.40
2019-02-24T23:03:29.175Z,31.40
2019-02-24T23:05:32.246Z,31.40
2019-02-24T23:07:35.451Z,31.50
2019-02-24T23:09:38.367Z,31.60
2019-02-24T23:11:41.296Z,31.80
2019-02-24T23:13:44.706Z,31.90
2019-02-24T23:15:47.614Z,31.90
2019-02-24T23:17:50.555Z,32.00
2019-02-24T23:19:54.358Z,32.40
2019-02-24T23:21:58.052Z,32.30
2019-02-24T23:24:01.726Z,32.30
2019-02-24T23:26:04.774Z,32.30
2019-02-24T23:28:07.703Z,32.30
2019-02-24T23:30:11.383Z,32.00
2019-02-24T23:32:15.555Z,32.80
2019-02-24T23:34:18.463Z,32.80
2019-02-24T23:36:21.596Z,32.90
2019-02-24T23:38:25.413Z,33.10
2019-02-24T23:40:28.346Z,33.00
2019-02-24T23:42:31.364Z,33.20
2019-02-24T23:44:35.088Z,34.00
2019-02-24T23:46:37.990Z,33.50
2019-02-24T23:48:40.927Z,33.70
2019-02-24T23:50:44.646Z,33.90
2019-02-24T23:52:47.566Z,33.80
2019-02-24T23:54:50.488Z,33.90
2019-02-24T23:56:54.499Z,34.20
2019-02-24T23:58:58.178Z,34.30
